createdAt,value
2018-09-08T00:00:58.333Z,75.21
2018-09-08T00:01:58.315Z,73.98
2018-09-08T00:02:58.303Z,74.29
2018-09-08T00:03:58.322Z,74.69
2018-09-08T00:04:58.285Z,74.29
2018-09-08T00:05:58.286Z,74.08
2018-09-08T00:06:58.267Z,73.98
2018-09-08T00:07:58.255Z,74.08
2018-09-08T00:08:58.294Z,73.68
2018-09-08T00:09:58.237Z,74.29
2018-09-08T00:10:58.216Z,74.39
2018-09-08T00:11:58.208Z,74.39
2018-09-08T00:12:58.213Z,74.60
2018-09-08T00:13:58.182Z,73.85
2018-09-08T00:14:58.188Z,73.98
2018-09-08T00:15:58.184Z,73.98
2018-09-08T00:16:58.158Z,74.49
2018-09-08T00:17:58.154Z,74.19
2018-09-08T00:18:58.134Z,74.05
2018-09-08T00:19:58.132Z,74.05
2018-09-08T00:20:58.124Z,73.94
2018-09-08T00:21:58.118Z,73.74
2018-09-08T00:22:58.087Z,74.26
2018-09-08T00:23:58.076Z,73.74
2018-09-08T00:24:58.063Z,73.81
2018-09-08T00:25:58.153Z,72.69
2018-09-08T00:26:58.050Z,72.99
2018-09-08T00:27:58.031Z,73.30
2018-09-08T00:28:58.023Z,72.99
2018-09-08T00:29:58.010Z,72.82
2018-09-08T00:30:58.004Z,72.92
2018-09-08T00:31:58.031Z,72.99
2018-09-08T00:32:57.985Z,72.92
2018-09-08T00:33:57.963Z,73.33
2018-09-08T00:34:57.953Z,73.71
2018-09-08T00:35:57.941Z,72.82
2018-09-08T00:36:57.945Z,72.89
2018-09-08T00:37:57.934Z,73.10
2018-09-08T00:38:57.933Z,73.20
2018-09-08T00:39:57.909Z,72.69
2018-09-08T00:40:57.886Z,72.69
2018-09-08T00:41:57.873Z,73.10
2018-09-08T00:42:57.889Z,72.99
2018-09-08T00:43:57.907Z,73.33
2018-09-08T00:44:57.848Z,73.30
2018-09-08T00:45:57.892Z,72.99
2018-09-08T00:46:57.845Z,72.58
2018-09-08T00:47:57.809Z,73.50
2018-09-08T00:48:57.820Z,72.79
2018-09-08T00:49:57.790Z,72.89
2018-09-08T00:50:57.811Z,72.69
2018-09-08T00:51:57.760Z,72.17
2018-09-08T00:52:57.753Z,72.79
2018-09-08T00:53:57.740Z,72.58
2018-09-08T00:54:57.747Z,72.45
2018-09-08T00:55:57.724Z,72.24
2018-09-08T00:56:57.747Z,72.04
2018-09-08T00:57:57.695Z,72.14
2018-09-08T00:58:57.683Z,72.14
2018-09-08T00:59:57.709Z,72.24
2018-09-08T01:00:57.669Z,72.14
2018-09-08T01:01:57.654Z,72.14
2018-09-08T01:02:57.708Z,71.94
2018-09-08T01:03:57.637Z,72.14
2018-09-08T01:04:57.623Z,71.83
2018-09-08T01:05:57.642Z,71.94
2018-09-08T01:06:57.603Z,71.73
2018-09-08T01:07:57.593Z,72.17
2018-09-08T01:08:57.633Z,72.75
2018-09-08T01:09:57.567Z,72.48
2018-09-08T01:10:57.558Z,72.38
2018-09-08T01:11:57.562Z,72.38
2018-09-08T01:12:57.538Z,72.45
2018-09-08T01:13:57.528Z,72.48
2018-09-08T01:14:57.540Z,72.24
2018-09-08T01:15:57.530Z,72.24
2018-09-08T01:16:57.487Z,71.87
2018-09-08T01:17:57.484Z,72.55
2018-09-08T01:18:57.464Z,72.65
2018-09-08T01:19:57.474Z,72.55
2018-09-08T01:20:57.444Z,72.28
2018-09-08T01:21:57.489Z,72.96
2018-09-08T01:22:57.421Z,72.55
2018-09-08T01:23:57.404Z,72.45
2018-09-08T01:24:57.404Z,72.34
2018-09-08T01:25:57.394Z,72.14
2018-09-08T01:26:57.425Z,72.21
2018-09-08T01:27:57.381Z,72.24
2018-09-08T01:28:57.398Z,71.73
2018-09-08T01:29:57.342Z,71.91
2018-09-08T01:30:57.335Z,71.80
2018-09-08T01:31:57.347Z,71.59
2018-09-08T01:32:57.315Z,71.59
2018-09-08T01:33:57.295Z,71.91
2018-09-08T01:34:57.331Z,71.80
2018-09-08T01:35:57.278Z,71.59
2018-09-08T01:36:57.287Z,70.98
2018-09-08T01:37:57.300Z,71.19
2018-09-08T01:38:57.241Z,71.26
2018-09-08T01:39:57.231Z,70.64
2018-09-08T01:40:57.222Z,71.05
2018-09-08T01:41:57.228Z,70.85
2018-09-08T01:42:57.258Z,70.34
2018-09-08T01:43:57.184Z,71.26
2018-09-08T01:44:57.170Z,70.14
2018-09-08T01:45:57.170Z,70.72
2018-09-08T01:46:57.179Z,70.44
2018-09-08T01:47:57.156Z,70.75
2018-09-08T01:48:57.163Z,71.05
2018-09-08T01:49:57.111Z,71.15
2018-09-08T01:50:57.101Z,71.05
2018-09-08T01:51:57.092Z,70.51
2018-09-08T01:52:57.083Z,70.34
2018-09-08T01:53:57.089Z,70.44
2018-09-08T01:54:57.100Z,70.54
2018-09-08T01:55:57.050Z,70.40
2018-09-08T01:56:57.041Z,70.92
2018-09-08T01:57:57.026Z,70.72
2018-09-08T01:58:57.032Z,70.61
2018-09-08T01:59:57.008Z,70.72
2018-09-08T02:00:57.033Z,70.40
2018-09-08T02:01:56.979Z,70.81
2018-09-08T02:02:56.975Z,70.51
2018-09-08T02:03:56.971Z,69.69
2018-09-08T02:04:56.975Z,69.90
2018-09-08T02:05:56.943Z,70.10
2018-09-08T02:06:56.956Z,70.51
2018-09-08T02:07:56.920Z,70.20
2018-09-08T02:08:56.937Z,69.90
2018-09-08T02:09:56.930Z,70.72
2018-09-08T02:10:56.881Z,69.79
2018-09-08T02:11:56.879Z,69.79
2018-09-08T02:12:56.915Z,69.59
2018-09-08T02:13:56.867Z,70.00
2018-09-08T02:14:56.891Z,69.79
2018-09-08T02:15:56.845Z,69.59
2018-09-08T02:16:56.819Z,70.40
2018-09-08T02:17:56.810Z,70.20
2018-09-08T02:18:56.795Z,70.10
2018-09-08T02:19:56.786Z,69.79
2018-09-08T02:20:56.811Z,70.72
2018-09-08T02:21:56.759Z,70.44
2018-09-08T02:22:56.789Z,70.34
2018-09-08T02:23:56.748Z,70.92
2018-09-08T02:24:56.770Z,70.40
2018-09-08T02:25:56.722Z,70.75
2018-09-08T02:26:56.747Z,70.23
2018-09-08T02:27:56.693Z,70.20
2018-09-08T02:28:56.738Z,70.75
2018-09-08T02:29:56.679Z,70.34
2018-09-08T02:30:56.663Z,70.64
2018-09-08T02:31:56.719Z,71.46
2018-09-08T02:32:56.659Z,70.64
2018-09-08T02:33:56.634Z,70.64
2018-09-08T02:34:56.616Z,70.95
2018-09-08T02:35:56.602Z,71.05
2018-09-08T02:36:56.597Z,71.15
2018-09-08T02:37:56.636Z,71.36
2018-09-08T02:38:56.596Z,71.15
2018-09-08T02:39:56.565Z,71.56
2018-09-08T02:40:56.555Z,71.26
2018-09-08T02:41:56.564Z,71.91
2018-09-08T02:42:56.528Z,71.67
2018-09-08T02:43:56.537Z,71.91
2018-09-08T02:44:56.501Z,71.26
2018-09-08T02:45:56.566Z,72.00
2018-09-08T02:46:56.485Z,72.00
2018-09-08T02:47:56.492Z,72.00
2018-09-08T02:48:56.493Z,71.80
2018-09-08T02:49:56.458Z,71.80
2018-09-08T02:50:56.434Z,71.70
2018-09-08T02:51:56.446Z,72.21
2018-09-08T02:52:56.415Z,71.80
2018-09-08T02:53:56.428Z,71.59
2018-09-08T02:54:56.396Z,71.91
2018-09-08T02:55:56.383Z,72.82
2018-09-08T02:56:56.373Z,72.52
2018-09-08T02:57:56.380Z,72.72
2018-09-08T02:58:56.375Z,72.82
2018-09-08T02:59:56.332Z,72.41
2018-09-08T03:00:56.328Z,72.62
2018-09-08T03:01:56.317Z,72.75
2018-09-08T03:02:56.308Z,72.96
2018-09-08T03:03:56.337Z,73.03
2018-09-08T03:04:56.306Z,73.23
2018-09-08T03:05:56.267Z,72.41
2018-09-08T03:06:56.264Z,73.03
2018-09-08T03:07:56.243Z,72.96
2018-09-08T03:08:56.235Z,72.82
2018-09-08T03:09:56.261Z,72.75
2018-09-08T03:10:56.245Z,73.06
2018-09-08T03:11:56.214Z,73.06
2018-09-08T03:12:56.199Z,73.47
2018-09-08T03:13:56.187Z,73.88
2018-09-08T03:14:56.185Z,73.98
2018-09-08T03:15:56.170Z,73.98
2018-09-08T03:16:56.144Z,73.88
2018-09-08T03:17:56.147Z,73.71
2018-09-08T03:18:56.122Z,74.02
2018-09-08T03:19:56.126Z,73.81
2018-09-08T03:20:56.123Z,73.77
2018-09-08T03:21:56.135Z,74.02
2018-09-08T03:22:56.103Z,74.18
2018-09-08T03:23:56.074Z,74.59
2018-09-08T03:24:56.060Z,74.11
2018-09-08T03:25:56.062Z,73.81
2018-09-08T03:26:56.059Z,73.81
2018-09-08T03:27:56.029Z,74.52
2018-09-08T03:28:56.042Z,74.49
2018-09-08T03:29:56.011Z,74.32
2018-09-08T03:30:56.000Z,74.73
2018-09-08T03:31:56.011Z,74.73
2018-09-08T03:32:55.972Z,74.52
2018-09-08T03:33:55.965Z,75.00
2018-09-08T03:34:55.944Z,74.63
2018-09-08T03:35:56.002Z,75.00
2018-09-08T03:36:55.949Z,74.11
2018-09-08T03:37:55.940Z,74.69
2018-09-08T03:38:55.907Z,74.02
2018-09-08T03:39:55.907Z,75.65
2018-09-08T03:40:55.936Z,75.85
2018-09-08T03:41:55.915Z,75.75
2018-09-08T03:42:55.863Z,74.63
2018-09-08T03:43:55.880Z,75.85
2018-09-08T03:44:55.848Z,75.89
2018-09-08T03:45:55.833Z,75.99
2018-09-08T03:46:55.849Z,75.96
2018-09-08T03:47:55.827Z,75.99
2018-09-08T03:48:55.797Z,75.75
2018-09-08T03:49:55.791Z,75.99
2018-09-08T03:50:55.776Z,75.96
2018-09-08T03:51:55.822Z,77.22
2018-09-08T03:52:55.753Z,76.71
2018-09-08T03:53:55.740Z,77.12
2018-09-08T03:54:55.769Z,76.61
2018-09-08T03:55:55.718Z,75.38
2018-09-08T03:56:55.710Z,76.50
2018-09-08T03:57:55.723Z,76.81
2018-09-08T03:58:55.688Z,77.53
2018-09-08T03:59:55.668Z,76.81
2018-09-08T04:00:55.685Z,77.63
2018-09-08T04:01:55.648Z,77.53
2018-09-08T04:02:55.648Z,77.53
2018-09-08T04:03:55.705Z,77.32
2018-09-08T04:04:55.618Z,77.53
2018-09-08T04:05:55.612Z,77.73
2018-09-08T04:06:55.602Z,77.83
2018-09-08T04:07:55.606Z,78.38
2018-09-08T04:08:55.600Z,77.63
2018-09-08T04:09:55.565Z,78.17
2018-09-08T04:10:55.604Z,78.34
2018-09-08T04:11:55.560Z,78.34
2018-09-08T04:12:55.579Z,77.94
2018-09-08T04:13:55.540Z,79.27
2018-09-08T04:14:55.508Z,78.28
2018-09-08T04:15:55.555Z,78.55
2018-09-08T04:16:55.510Z,78.14
2018-09-08T04:17:55.519Z,78.08
2018-09-08T04:18:55.463Z,77.87
2018-09-08T04:19:55.467Z,78.86
2018-09-08T04:20:55.510Z,78.38
2018-09-08T04:21:55.521Z,79.06
2018-09-08T04:22:55.424Z,78.86
2018-09-08T04:23:55.476Z,79.37
2018-09-08T04:24:55.397Z,78.34
2018-09-08T04:25:55.386Z,79.06
2018-09-08T04:26:55.406Z,78.65
2018-09-08T04:27:55.430Z,78.69
2018-09-08T04:28:55.361Z,78.59
2018-09-08T04:29:55.340Z,79.00
2018-09-08T04:30:55.354Z,77.97
2018-09-08T04:31:55.322Z,77.97
2018-09-08T04:32:55.334Z,78.08
2018-09-08T04:33:55.319Z,79.61
2018-09-08T04:34:55.329Z,79.71
2018-09-08T04:35:55.280Z,79.50
2018-09-08T04:36:55.316Z,79.50
2018-09-08T04:37:55.304Z,79.50
2018-09-08T04:38:55.242Z,79.20
2018-09-08T04:39:55.235Z,80.02
2018-09-08T04:40:55.311Z,79.44
2018-09-08T04:41:55.211Z,79.44
2018-09-08T04:42:55.206Z,80.12
2018-09-08T04:43:55.203Z,79.85
2018-09-08T04:44:55.177Z,80.33
2018-09-08T04:45:55.181Z,80.22
2018-09-08T04:46:55.152Z,80.36
2018-09-08T04:47:55.167Z,80.36
2018-09-08T04:48:55.135Z,79.71
2018-09-08T04:49:55.137Z,79.96
2018-09-08T04:50:55.157Z,80.57
2018-09-08T04:51:55.365Z,80.16
2018-09-08T04:52:55.088Z,80.57
2018-09-08T04:53:55.066Z,80.16
2018-09-08T04:54:55.082Z,80.05
2018-09-08T04:55:55.041Z,80.67
2018-09-08T04:56:55.222Z,80.16
2018-09-08T04:57:55.095Z,81.70
2018-09-08T04:58:55.014Z,80.88
2018-09-08T04:59:55.015Z,81.29
2018-09-08T05:00:55.007Z,81.18
2018-09-08T05:01:54.975Z,81.49
2018-09-08T05:02:55.009Z,81.59
2018-09-08T05:03:54.960Z,80.77
2018-09-08T05:04:54.959Z,80.36
2018-09-08T05:05:54.991Z,80.88
2018-09-08T05:06:54.936Z,81.49
2018-09-08T05:07:54.944Z,81.59
2018-09-08T05:08:54.960Z,80.26
2018-09-08T05:09:54.940Z,81.79
2018-09-08T05:10:54.915Z,81.18
2018-09-08T05:11:54.917Z,81.70
2018-09-08T05:12:55.147Z,82.00
2018-09-08T05:15:16.504Z,81.59
2018-09-08T05:16:14.619Z,81.18
2018-09-08T05:17:14.276Z,81.79
2018-09-08T05:18:14.468Z,82.00
2018-09-08T05:20:09.078Z,81.70
2018-09-08T05:21:08.664Z,82.62
2018-09-08T05:22:08.710Z,82.10
2018-09-08T05:23:08.591Z,82.21
2018-09-08T05:24:08.532Z,82.41
2018-09-08T05:25:08.484Z,82.00
2018-09-08T05:26:08.494Z,82.00
2018-09-08T05:27:08.542Z,82.00
2018-09-08T05:28:08.506Z,82.21
2018-09-08T05:29:08.438Z,82.41
2018-09-08T05:30:08.467Z,81.79
2018-09-08T05:31:08.404Z,82.82
2018-09-08T05:32:08.473Z,82.41
2018-09-08T05:33:08.416Z,82.62
2018-09-08T05:34:08.414Z,82.41
2018-09-08T05:35:08.552Z,81.96
2018-09-08T05:36:08.363Z,82.89
2018-09-08T05:37:08.346Z,82.13
2018-09-08T05:38:08.400Z,82.23
2018-09-08T05:39:08.333Z,81.62
2018-09-08T05:40:08.398Z,82.48
2018-09-08T05:41:08.418Z,81.82
2018-09-08T05:42:08.290Z,82.03
2018-09-08T05:43:08.300Z,81.10
2018-09-08T05:44:08.276Z,81.72
2018-09-08T05:45:08.256Z,81.82
2018-09-08T05:46:08.280Z,81.82
2018-09-08T05:47:08.235Z,81.82
2018-09-08T05:48:08.223Z,81.31
2018-09-08T05:49:08.215Z,81.93
2018-09-08T05:50:08.230Z,81.88
2018-09-08T05:51:08.225Z,82.23
2018-09-08T05:52:08.230Z,81.82
2018-09-08T05:53:08.212Z,81.93
2018-09-08T05:54:08.195Z,81.72
2018-09-08T05:55:08.198Z,82.43
2018-09-08T05:56:08.179Z,81.79
2018-09-08T05:57:08.250Z,81.88
2018-09-08T05:58:08.195Z,81.44
2018-09-08T05:59:08.094Z,81.48
2018-09-08T06:00:08.104Z,81.88
2018-09-08T06:01:08.096Z,81.79
2018-09-08T06:02:08.145Z,81.48
2018-09-08T06:03:08.113Z,80.93
2018-09-08T06:04:08.117Z,80.93
2018-09-08T06:05:08.065Z,81.13
2018-09-08T06:06:08.018Z,80.93
2018-09-08T06:07:08.025Z,80.89
2018-09-08T06:08:08.694Z,80.01
2018-09-08T06:09:08.063Z,79.91
2018-09-08T06:10:07.985Z,81.03
2018-09-08T06:11:07.964Z,80.79
2018-09-08T06:12:07.962Z,80.48
2018-09-08T06:13:07.966Z,80.69
2018-09-08T06:14:07.952Z,80.69
2018-09-08T06:15:08.000Z,79.97
2018-09-08T06:16:07.918Z,80.07
2018-09-08T06:17:07.914Z,80.28
2018-09-08T06:18:07.927Z,79.73
2018-09-08T06:19:07.920Z,79.93
2018-09-08T06:20:07.930Z,79.83
2018-09-08T06:21:07.900Z,79.93
2018-09-08T06:22:07.856Z,79.83
2018-09-08T06:23:07.823Z,79.43
2018-09-08T06:24:07.834Z,79.73
2018-09-08T06:25:07.863Z,79.63
2018-09-08T06:26:07.807Z,79.93
2018-09-08T06:27:07.786Z,79.63
2018-09-08T06:28:07.815Z,79.63
2018-09-08T06:29:09.810Z,79.52
2018-09-08T06:30:07.764Z,79.18
2018-09-08T06:31:07.779Z,78.98
2018-09-08T06:32:07.731Z,79.28
2018-09-08T06:33:07.718Z,78.98
2018-09-08T06:34:07.712Z,78.84
2018-09-08T06:35:07.767Z,78.74
2018-09-08T06:36:07.738Z,78.84
2018-09-08T06:37:07.761Z,78.43
2018-09-08T06:38:07.669Z,79.25
2018-09-08T06:39:07.653Z,78.43
2018-09-08T06:40:07.659Z,78.53
2018-09-08T06:41:07.707Z,77.31
2018-09-08T06:42:07.670Z,77.78
2018-09-08T06:43:07.646Z,78.39
2018-09-08T06:44:07.611Z,77.89
2018-09-08T06:45:07.754Z,77.37
2018-09-08T06:46:07.624Z,77.98
2018-09-08T06:47:07.569Z,77.27
2018-09-08T06:48:07.567Z,77.78
2018-09-08T06:49:07.566Z,77.48
2018-09-08T06:50:07.736Z,77.75
2018-09-08T06:51:07.514Z,77.68
2018-09-08T06:52:07.573Z,77.24
2018-09-08T06:53:07.582Z,77.75
2018-09-08T06:54:07.502Z,77.55
2018-09-08T07:06:50.132Z,77.20
2018-09-08T07:07:49.767Z,77.20
2018-09-08T07:08:50.298Z,77.10
2018-09-08T07:09:49.703Z,76.76
2018-09-08T07:10:51.362Z,76.56
2018-09-08T07:11:49.757Z,76.04
2018-09-08T07:12:49.771Z,76.35
2018-09-08T07:13:49.708Z,76.11
2018-09-08T07:14:49.638Z,75.50
2018-09-08T07:15:49.654Z,75.60
2018-09-08T07:16:50.565Z,75.81
2018-09-08T07:20:31.599Z,75.16
2018-09-08T07:21:31.697Z,75.77
2018-09-08T07:22:31.647Z,75.46
2018-09-08T07:23:31.586Z,75.46
2018-09-08T07:26:02.689Z,75.16
2018-09-08T07:27:02.388Z,74.92
2018-09-08T07:28:02.398Z,75.12
2018-09-08T07:29:02.254Z,74.21
2018-09-08T07:30:02.251Z,74.41
2018-09-08T07:31:04.303Z,75.23
2018-09-08T07:43:14.635Z,72.92
2018-09-08T07:44:14.608Z,73.02
2018-09-08T07:45:14.502Z,72.28
2018-09-08T07:46:14.696Z,72.58
2018-09-08T07:47:14.505Z,72.48
2018-09-08T07:48:14.435Z,72.28
2018-09-08T08:07:53.967Z,69.41
2018-09-08T08:08:53.247Z,68.77
2018-09-08T08:09:53.234Z,68.87
2018-09-08T08:10:53.257Z,68.26
2018-09-08T08:11:53.252Z,67.76
2018-09-08T08:12:53.174Z,67.93
2018-09-08T08:13:53.783Z,68.02
2018-09-08T08:24:50.280Z,64.97
2018-09-08T08:25:50.123Z,65.57
2018-09-08T08:29:12.740Z,65.04
2018-09-08T08:30:15.692Z,64.40
2018-09-08T08:31:10.778Z,63.79
2018-09-08T08:32:10.768Z,64.20
2018-09-08T08:33:10.615Z,63.87
2018-09-08T08:34:10.658Z,63.16
2018-09-08T08:35:10.938Z,63.16
2018-09-08T08:36:10.585Z,62.76
2018-09-08T08:39:21.128Z,62.32
2018-09-08T08:40:21.054Z,64.11
2018-09-08T08:41:21.129Z,61.79
2018-09-08T08:42:21.003Z,62.12
2018-09-08T08:43:20.977Z,60.88
2018-09-08T08:44:20.917Z,60.81
2018-09-08T08:45:20.926Z,61.59
2018-09-08T08:46:22.916Z,60.98
2018-09-08T08:47:21.093Z,61.11
2018-09-08T08:54:59.518Z,60.51
2018-09-08T08:55:59.944Z,60.17
2018-09-08T08:57:07.535Z,60.28
2018-09-08T08:57:59.084Z,59.37
2018-09-08T08:58:59.924Z,59.57
2018-09-08T08:59:59.099Z,59.75
2018-09-08T09:03:52.698Z,58.74
2018-09-08T09:04:50.872Z,60.75
2018-09-08T09:05:51.939Z,60.65
2018-09-08T09:06:50.413Z,59.75
2018-09-08T09:07:50.364Z,59.31
2018-09-08T09:08:50.494Z,58.34
2018-09-08T09:09:50.960Z,60.55
2018-09-08T09:10:50.396Z,59.11
2018-09-08T09:11:50.611Z,58.98
2018-09-08T09:14:01.402Z,57.57
2018-09-08T09:16:55.218Z,56.87
2018-09-08T09:19:35.349Z,57.55
2018-09-08T09:20:35.083Z,57.04
2018-09-08T09:21:35.112Z,57.02
2018-09-08T09:22:34.875Z,57.55
2018-09-08T09:23:34.939Z,57.42
2018-09-08T09:24:35.263Z,57.02
2018-09-08T09:25:34.879Z,57.72
2018-09-08T09:26:34.825Z,57.42
2018-09-08T09:27:34.810Z,56.71
2018-09-08T09:28:34.847Z,57.09
2018-09-08T09:29:34.865Z,55.28
2018-09-08T09:30:34.794Z,56.79
2018-09-08T09:31:34.811Z,55.38
2018-09-08T09:32:34.760Z,56.79
2018-09-08T09:33:34.751Z,55.88
2018-09-08T09:34:34.781Z,55.18
2018-09-08T09:35:34.730Z,54.17
2018-09-08T09:36:34.721Z,55.51
2018-09-08T09:37:34.727Z,55.48
2018-09-08T09:38:34.728Z,55.41
2018-09-08T09:39:34.691Z,57.12
2018-09-08T09:40:34.682Z,56.31
2018-09-08T09:41:34.789Z,56.38
2018-09-08T09:42:34.665Z,55.61
2018-09-08T09:43:34.650Z,56.41
2018-09-08T09:44:34.681Z,56.62
2018-09-08T09:45:34.626Z,55.61
2018-09-08T09:46:34.647Z,56.82
2018-09-08T09:47:34.672Z,56.41
2018-09-08T09:48:34.603Z,56.74
2018-09-08T09:49:34.607Z,56.84
2018-09-08T09:50:34.669Z,57.02
2018-09-08T09:51:34.582Z,56.01
2018-09-08T09:52:34.548Z,57.04
2018-09-08T09:53:36.408Z,57.12
2018-09-08T09:54:34.535Z,55.41
2018-09-08T09:55:34.561Z,55.61
2018-09-08T09:56:34.540Z,56.44
2018-09-08T09:57:34.508Z,56.57
2018-09-08T09:58:34.554Z,56.47
2018-09-08T09:59:34.506Z,56.97
2018-09-08T10:00:34.469Z,58.07
2018-09-08T10:01:34.472Z,57.37
2018-09-08T10:02:34.606Z,57.17
2018-09-08T10:03:34.511Z,56.95
2018-09-08T10:04:34.437Z,57.35
2018-09-08T10:05:34.422Z,57.15
2018-09-08T10:06:34.575Z,56.44
2018-09-08T10:07:34.433Z,57.24
2018-09-08T10:08:34.395Z,57.37
2018-09-08T10:09:34.376Z,56.90
2018-09-08T10:10:34.425Z,57.40
2018-09-08T10:11:35.349Z,57.37
2018-09-08T10:12:34.414Z,56.97
2018-09-08T10:13:34.374Z,57.88
2018-09-08T10:14:34.381Z,57.07
2018-09-08T10:15:34.317Z,56.97
2018-09-08T10:16:34.304Z,57.50
2018-09-08T10:17:34.292Z,57.57
2018-09-08T10:18:34.338Z,57.48
2018-09-08T10:19:34.277Z,56.77
2018-09-08T10:20:34.328Z,56.74
2018-09-08T10:21:34.262Z,56.74
2018-09-08T10:22:34.240Z,56.74
2018-09-08T10:23:34.314Z,57.65
2018-09-08T10:24:34.293Z,57.52
2018-09-08T10:25:34.296Z,55.99
2018-09-08T10:26:34.194Z,56.49
2018-09-08T10:27:34.248Z,56.29
2018-09-08T10:28:34.174Z,55.99
2018-09-08T10:29:34.587Z,55.58
2018-09-08T10:30:34.257Z,56.96
2018-09-08T10:31:34.153Z,54.15
2018-09-08T10:32:34.169Z,55.58
2018-09-08T10:33:34.130Z,54.55
2018-09-08T10:34:34.120Z,55.58
2018-09-08T10:35:34.108Z,53.88
2018-09-08T10:36:34.144Z,54.00
2018-09-08T10:37:34.168Z,53.80
2018-09-08T10:38:34.078Z,53.63
2018-09-08T10:39:34.062Z,54.53
2018-09-08T10:40:34.115Z,53.70
2018-09-08T10:41:34.379Z,54.40
2018-09-08T10:42:34.072Z,54.30
2018-09-08T10:43:34.018Z,54.50
2018-09-08T10:44:34.010Z,53.70
2018-09-08T10:45:34.016Z,54.20
2018-09-08T10:46:34.013Z,53.80
2018-09-08T10:47:34.014Z,54.20
2018-09-08T10:48:33.972Z,54.20
2018-09-08T10:49:33.970Z,53.57
2018-09-08T10:50:34.170Z,52.47
2018-09-08T10:51:33.953Z,53.07
2018-09-08T10:52:33.937Z,52.97
2018-09-08T10:53:33.955Z,53.17
2018-09-08T10:54:33.955Z,52.87
2018-09-08T10:55:33.906Z,53.17
2018-09-08T10:56:33.930Z,51.66
2018-09-08T10:57:33.939Z,51.18
2018-09-08T10:58:33.864Z,52.06
2018-09-08T10:59:33.861Z,51.86
2018-09-08T11:00:33.872Z,51.86
2018-09-08T11:01:34.165Z,51.86
2018-09-08T11:02:34.043Z,51.46
2018-09-08T11:03:33.806Z,50.35
2018-09-08T11:04:33.799Z,51.09
2018-09-08T11:05:33.795Z,51.89
2018-09-08T11:06:33.833Z,53.09
2018-09-08T11:07:33.774Z,51.76
2018-09-08T11:08:33.778Z,52.17
2018-09-08T11:09:33.747Z,50.35
2018-09-08T11:10:33.730Z,50.86
2018-09-08T11:11:33.743Z,51.06
2018-09-08T11:12:33.796Z,49.65
2018-09-08T11:13:33.764Z,49.93
2018-09-08T11:14:33.696Z,49.43
2018-09-08T11:15:33.741Z,48.12
2018-09-08T11:16:33.863Z,49.63
2018-09-08T11:17:33.675Z,49.65
2018-09-08T11:18:33.646Z,49.45
2018-09-08T11:19:33.656Z,50.43
2018-09-08T11:20:33.654Z,51.14
2018-09-08T11:21:33.614Z,49.51
2018-09-08T11:22:33.615Z,49.01
2018-09-08T11:23:33.626Z,49.93
2018-09-08T11:24:33.613Z,50.41
2018-09-08T11:25:33.585Z,49.80
2018-09-08T11:26:33.593Z,49.91
2018-09-08T11:27:33.563Z,49.58
2018-09-08T11:28:33.553Z,50.29
2018-09-08T11:29:33.569Z,49.16
2018-09-08T11:30:33.657Z,48.66
2018-09-08T11:31:33.524Z,49.26
2018-09-08T11:32:33.524Z,49.26
2018-09-08T11:33:33.738Z,47.55
2018-09-08T11:34:33.530Z,49.18
2018-09-08T11:35:33.740Z,48.58
2018-09-08T11:36:33.508Z,49.68
2018-09-08T11:37:33.527Z,48.78
2018-09-08T11:38:33.664Z,50.18
2018-09-08T11:39:33.487Z,48.38
2018-09-08T11:40:33.429Z,49.18
2018-09-08T11:41:33.485Z,49.08
2018-09-08T11:42:33.579Z,49.18
2018-09-08T11:43:33.627Z,49.76
2018-09-08T11:44:33.581Z,49.36
2018-09-08T11:45:33.412Z,48.46
2018-09-08T11:46:34.519Z,48.18
2018-09-08T11:47:33.369Z,48.48
2018-09-08T11:48:33.343Z,48.08
2018-09-08T11:49:33.665Z,48.58
2018-09-08T11:50:33.311Z,49.38
2018-09-08T11:51:33.423Z,50.29
2018-09-08T11:52:33.315Z,49.88
2018-09-08T11:53:33.331Z,49.88
2018-09-08T11:54:33.382Z,49.38
2018-09-08T11:55:33.357Z,49.86
2018-09-08T11:56:33.456Z,48.75
2018-09-08T11:57:33.261Z,48.96
2018-09-08T11:58:33.453Z,47.96
2018-09-08T11:59:33.228Z,48.28
2018-09-08T12:00:33.302Z,48.35
2018-09-08T12:01:34.948Z,47.85
2018-09-08T12:02:34.929Z,47.55
2018-09-08T12:03:33.236Z,47.63
2018-09-08T12:04:33.280Z,47.63
2018-09-08T12:05:35.297Z,47.43
2018-09-08T12:06:33.261Z,47.85
2018-09-08T12:07:33.133Z,47.85
2018-09-08T12:08:33.109Z,47.85
2018-09-08T12:09:33.131Z,49.38
2018-09-08T12:10:33.165Z,49.46
2018-09-08T12:11:33.155Z,50.46
2018-09-08T12:12:33.080Z,47.83
2018-09-08T12:13:33.079Z,47.83
2018-09-08T12:14:33.087Z,46.11
2018-09-08T12:15:33.134Z,48.08
2018-09-08T12:16:33.083Z,46.41
2018-09-08T12:17:33.051Z,46.81
2018-09-08T12:18:33.044Z,46.11
2018-09-08T12:19:32.999Z,45.83
2018-09-08T12:20:33.053Z,47.31
2018-09-08T12:21:33.106Z,46.11
2018-09-08T12:22:32.991Z,46.00
2018-09-08T12:23:33.179Z,46.81
2018-09-08T12:24:33.003Z,45.46
2018-09-08T12:25:33.088Z,45.36
2018-09-08T12:26:33.037Z,45.96
2018-09-08T12:27:32.962Z,44.74
2018-09-08T12:28:32.946Z,43.66
2018-09-08T12:29:32.907Z,43.93
2018-09-08T12:30:33.189Z,44.74
2018-09-08T12:31:32.986Z,45.21
2018-09-08T12:32:32.992Z,44.42
2018-09-08T12:33:32.861Z,43.84
2018-09-08T12:34:32.847Z,43.24
2018-09-08T12:35:32.971Z,43.66
2018-09-08T12:36:32.855Z,43.76
2018-09-08T12:37:32.875Z,44.76
2018-09-08T12:38:33.931Z,43.88
2018-09-08T12:39:32.835Z,44.88
2018-09-08T12:40:32.833Z,45.98
2018-09-08T12:41:32.778Z,45.30
2018-09-08T12:42:32.796Z,44.58
2018-09-08T12:43:32.928Z,44.18
2018-09-08T12:44:32.754Z,46.06
2018-09-08T12:45:32.910Z,45.14
2018-09-08T12:46:32.908Z,43.84
2018-09-08T12:47:32.763Z,43.01
2018-09-08T12:48:33.008Z,43.51
2018-09-08T12:49:32.717Z,42.91
2018-09-08T12:50:32.672Z,43.71
2018-09-08T12:51:32.678Z,43.51
2018-09-08T12:52:32.653Z,43.49
2018-09-08T12:53:32.682Z,42.61
2018-09-08T12:54:32.678Z,43.62
2018-09-08T12:55:32.626Z,43.21
2018-09-08T12:56:32.608Z,43.37
2018-09-08T12:57:32.768Z,43.77
2018-09-08T12:58:32.594Z,43.75
2018-09-08T12:59:32.721Z,40.86
2018-09-08T13:00:32.585Z,40.95
2018-09-08T13:01:32.625Z,42.05
2018-09-08T13:02:32.543Z,42.25
2018-09-08T13:03:33.309Z,40.67
2018-09-08T13:04:32.542Z,41.88
2018-09-08T13:05:32.542Z,42.49
2018-09-08T13:06:33.380Z,42.10
2018-09-08T13:07:32.504Z,42.40
2018-09-08T13:08:32.488Z,42.60
2018-09-08T13:09:32.474Z,41.89
2018-09-08T13:10:32.481Z,42.10
2018-09-08T13:11:32.457Z,42.10
2018-09-08T13:12:32.737Z,43.90
2018-09-08T13:13:32.442Z,42.97
2018-09-08T13:14:32.417Z,41.75
2018-09-08T13:15:32.416Z,42.76
2018-09-08T13:16:32.409Z,41.55
2018-09-08T13:17:32.399Z,41.85
2018-09-08T13:18:34.563Z,40.56
2018-09-08T13:19:32.407Z,43.05
2018-09-08T13:20:32.364Z,40.86
2018-09-08T13:21:32.356Z,42.15
2018-09-08T13:22:32.342Z,41.58
2018-09-08T13:23:32.477Z,42.27
2018-09-08T13:24:32.390Z,41.69
2018-09-08T13:25:34.050Z,42.40
2018-09-08T13:27:46.031Z,44.42
2018-09-08T13:28:44.248Z,44.92
2018-09-08T13:29:44.399Z,43.19
2018-09-08T13:30:44.157Z,42.07
2018-09-08T13:31:44.107Z,42.85
2018-09-08T13:32:44.190Z,42.93
2018-09-08T13:33:44.105Z,42.03
2018-09-08T13:34:44.084Z,42.03
2018-09-08T13:35:44.066Z,42.35
2018-09-08T13:36:44.218Z,41.05
2018-09-08T13:37:44.080Z,43.05
2018-09-08T13:38:44.106Z,41.53
2018-09-08T13:39:44.100Z,41.63
2018-09-08T13:40:44.103Z,40.14
2018-09-08T13:41:44.044Z,40.53
2018-09-08T13:42:44.048Z,40.73
2018-09-08T13:43:44.027Z,39.56
2018-09-08T13:44:43.990Z,41.17
2018-09-08T13:45:44.151Z,42.57
2018-09-08T13:46:43.958Z,42.07
2018-09-08T13:47:43.991Z,41.49
2018-09-08T13:50:13.887Z,42.71
2018-09-08T13:51:13.577Z,42.13
2018-09-08T13:52:13.392Z,44.34
2018-09-08T13:53:13.425Z,43.43
2018-09-08T13:54:13.292Z,42.83
2018-09-08T13:55:13.339Z,43.05
2018-09-08T13:56:13.287Z,44.06
2018-09-08T13:57:13.238Z,43.05
2018-09-08T13:58:13.413Z,45.96
2018-09-08T13:59:13.229Z,42.85
2018-09-08T14:00:13.258Z,43.05
2018-09-08T14:01:13.181Z,43.55
2018-09-08T14:02:13.229Z,42.97
2018-09-08T14:03:13.452Z,43.70
2018-09-08T14:04:13.254Z,44.30
2018-09-08T14:05:14.098Z,43.40
2018-09-08T14:06:13.171Z,43.70
2018-09-08T14:07:13.164Z,43.30
2018-09-08T14:08:13.201Z,43.32
2018-09-08T14:09:13.280Z,43.30
2018-09-08T14:10:13.140Z,43.70
2018-09-08T14:11:14.118Z,43.19
2018-09-08T14:12:13.045Z,43.10